createdAt,value
2018-07-26T00:00:25.960Z,96356.44
2018-07-26T00:02:54.450Z,96400.05
2018-07-26T00:05:22.932Z,96374.69
2018-07-26T00:07:51.473Z,96416.27
2018-07-26T00:10:19.947Z,96377.73
2018-07-26T00:12:48.513Z,96424.39
2018-07-26T00:15:17.061Z,96408.16
2018-07-26T00:17:45.573Z,96398.02
2018-07-26T00:20:14.252Z,96401.06
2018-07-26T00:22:43.101Z,96381.79
2018-07-26T00:25:12.520Z,96398.02
2018-07-26T00:27:41.106Z,96425.40
2018-07-26T00:30:09.600Z,96438.59
2018-07-26T00:32:38.101Z,96418.30
2018-07-26T00:35:06.701Z,96438.59
2018-07-26T00:37:36.793Z,96450.76
2018-07-26T00:40:05.729Z,96484.23
2018-07-26T00:42:34.214Z,96452.78
2018-07-26T00:45:02.679Z,96488.28
2018-07-26T00:47:31.261Z,96484.23
2018-07-26T00:49:59.741Z,96569.42
2018-07-26T00:52:28.233Z,96483.21
2018-07-26T00:54:56.943Z,96494.37
2018-07-26T00:57:25.428Z,96522.77
2018-07-26T00:59:53.942Z,96518.72
2018-07-26T01:02:22.481Z,96527.84
2018-07-26T01:04:50.963Z,96525.81
2018-07-26T01:07:19.445Z,96549.14
2018-07-26T01:09:47.965Z,96566.38
2018-07-26T01:12:16.464Z,96523.78
2018-07-26T01:14:44.932Z,96545.09
2018-07-26T01:17:13.767Z,96534.94
2018-07-26T01:19:42.261Z,96582.61
2018-07-26T01:22:10.912Z,96580.58
2018-07-26T01:24:39.520Z,96519.73
2018-07-26T01:27:08.193Z,96565.38
2018-07-26T01:29:36.722Z,96544.07
2018-07-26T01:32:05.774Z,96556.23
2018-07-26T01:34:34.230Z,96552.19
2018-07-26T01:37:02.729Z,96574.50
2018-07-26T01:39:31.252Z,96598.84
2018-07-26T01:41:59.759Z,96567.40
2018-07-26T01:44:28.216Z,96568.41
2018-07-26T01:46:57.065Z,96594.78
2018-07-26T01:49:25.557Z,96592.75
2018-07-26T01:51:54.052Z,96615.07
2018-07-26T01:54:22.565Z,96603.91
2018-07-26T01:56:51.158Z,96634.34
2018-07-26T01:59:19.635Z,96645.50
2018-07-26T02:01:48.629Z,96646.52
2018-07-26T02:04:17.044Z,96601.89
2018-07-26T02:06:45.497Z,96657.67
2018-07-26T02:09:14.049Z,96697.23
2018-07-26T02:11:42.521Z,96647.53
2018-07-26T02:14:16.612Z,96694.19
2018-07-26T02:16:45.149Z,96717.52
2018-07-26T02:19:13.707Z,96689.12
2018-07-26T02:21:42.297Z,96661.73
2018-07-26T02:24:10.822Z,96721.58
2018-07-26T02:26:39.378Z,96700.27
2018-07-26T02:29:08.969Z,96702.30
2018-07-26T02:31:37.866Z,96749.97
2018-07-26T02:34:06.966Z,96722.59
2018-07-26T02:36:35.466Z,96760.12
2018-07-26T02:39:07.866Z,96781.42
2018-07-26T02:41:36.430Z,96767.22
2018-07-26T02:44:06.955Z,96770.27
2018-07-26T02:46:35.457Z,96783.45
2018-07-26T02:49:04.030Z,96782.44
2018-07-26T02:51:32.582Z,96800.69
2018-07-26T02:54:01.090Z,96799.68
2018-07-26T02:56:30.430Z,96806.78
2018-07-26T02:58:59.081Z,96828.08
2018-07-26T03:01:27.590Z,96799.68
2018-07-26T03:03:56.111Z,96858.52
2018-07-26T03:06:26.246Z,96841.27
2018-07-26T03:08:54.964Z,96851.41
2018-07-26T03:11:24.100Z,96840.25
2018-07-26T03:13:54.013Z,96833.16
2018-07-26T03:16:22.982Z,96869.67
2018-07-26T03:18:52.060Z,96874.74
2018-07-26T03:21:20.559Z,96823.01
2018-07-26T03:23:49.231Z,96887.93
2018-07-26T03:26:17.722Z,96869.67
2018-07-26T03:28:46.210Z,96877.78
2018-07-26T03:31:14.739Z,96864.59
2018-07-26T03:33:43.311Z,96889.95
2018-07-26T03:36:11.787Z,96881.84
2018-07-26T03:38:40.389Z,96895.03
2018-07-26T03:41:09.126Z,96908.22
2018-07-26T03:43:37.686Z,96897.06
2018-07-26T03:46:06.252Z,96916.33
2018-07-26T03:48:34.826Z,96897.06
2018-07-26T03:51:03.358Z,96958.94
2018-07-26T03:53:31.835Z,96940.67
2018-07-26T03:56:00.381Z,96904.16
2018-07-26T03:58:28.930Z,96922.41
2018-07-26T04:00:57.421Z,96920.39
2018-07-26T04:03:25.984Z,96944.73
2018-07-26T04:05:54.509Z,96953.86
2018-07-26T04:08:23.011Z,96969.08
2018-07-26T04:10:51.515Z,96931.55
2018-07-26T04:13:20.024Z,96973.14
2018-07-26T04:15:48.729Z,96948.79
2018-07-26T04:18:17.262Z,96941.69
2018-07-26T04:20:45.842Z,96950.82
2018-07-26T04:23:14.494Z,96955.89
2018-07-26T04:25:42.999Z,96955.89
2018-07-26T04:28:11.461Z,96995.45
2018-07-26T04:30:39.964Z,96924.45
2018-07-26T04:33:08.938Z,96931.55
2018-07-26T04:35:37.440Z,96917.34
2018-07-26T04:38:06.050Z,96907.20
2018-07-26T04:40:34.544Z,96889.95
2018-07-26T04:43:03.132Z,96915.31
2018-07-26T04:45:31.591Z,96896.05
2018-07-26T04:48:00.086Z,96859.53
2018-07-26T04:50:28.601Z,96843.30
2018-07-26T04:52:57.149Z,96779.39
2018-07-26T04:55:25.723Z,96792.58
2018-07-26T04:57:54.297Z,96808.80
2018-07-26T05:00:22.879Z,96773.30
2018-07-26T05:02:51.507Z,96693.17
2018-07-26T05:05:20.015Z,96695.20
2018-07-26T05:07:48.569Z,96598.84
2018-07-26T05:10:17.111Z,96618.11
2018-07-26T05:12:45.610Z,96576.53
2018-07-26T05:15:14.146Z,96445.69
2018-07-26T05:17:42.726Z,96430.47
2018-07-26T05:20:11.879Z,96395.98
2018-07-26T05:22:40.395Z,96435.55
2018-07-26T05:25:08.919Z,96424.39
2018-07-26T05:27:37.608Z,96439.60
2018-07-26T05:30:06.472Z,96449.74
2018-07-26T05:32:34.984Z,96342.23
2018-07-26T05:35:03.602Z,96281.37
2018-07-26T05:37:32.293Z,96340.20
2018-07-26T05:40:00.851Z,96324.99
2018-07-26T05:42:29.346Z,96421.34
2018-07-26T05:44:57.922Z,96343.25
2018-07-26T05:47:26.463Z,96320.94
2018-07-26T05:49:54.967Z,96303.69
2018-07-26T05:52:23.530Z,96342.23
2018-07-26T05:54:52.053Z,96321.95
2018-07-26T05:57:20.554Z,96221.55
2018-07-26T05:59:49.154Z,96203.28
2018-07-26T06:02:18.091Z,96200.25
2018-07-26T06:04:46.597Z,96163.73
2018-07-26T06:07:15.146Z,96055.22
2018-07-26T06:09:43.899Z,95894.98
2018-07-26T06:12:12.545Z,95947.72
2018-07-26T06:14:41.485Z,95925.41
2018-07-26T06:17:10.387Z,95946.70
2018-07-26T06:19:38.897Z,95633.36
2018-07-26T06:22:07.569Z,95690.15
2018-07-26T06:24:36.079Z,95853.41
2018-07-26T06:27:04.577Z,95648.58
2018-07-26T06:29:33.110Z,95744.91
2018-07-26T06:32:01.637Z,95592.80
2018-07-26T06:34:30.268Z,95473.16
2018-07-26T06:36:58.768Z,95551.23
2018-07-26T06:39:27.309Z,95679.00
2018-07-26T06:41:55.842Z,95843.27
2018-07-26T06:44:24.348Z,95704.34
2018-07-26T06:46:52.849Z,95633.36
2018-07-26T06:49:21.388Z,95586.72
2018-07-26T06:51:49.906Z,95357.56
2018-07-26T06:54:18.423Z,95439.69
2018-07-26T06:56:46.977Z,95403.19
2018-07-26T06:59:15.646Z,95213.59
2018-07-26T07:01:44.182Z,94949.98
2018-07-26T07:04:12.818Z,94875.98
2018-07-26T07:06:41.291Z,95007.77
2018-07-26T07:09:11.414Z,95070.63
2018-07-26T07:11:40.461Z,95051.37
2018-07-26T07:14:08.961Z,95130.45
2018-07-26T07:16:37.471Z,95335.26
2018-07-26T07:19:06.015Z,95491.41
2018-07-26T07:21:34.557Z,95496.47
2018-07-26T07:24:03.060Z,95492.42
2018-07-26T07:26:32.045Z,95420.43
2018-07-26T07:29:00.561Z,95330.19
2018-07-26T07:31:29.053Z,95326.13
2018-07-26T07:33:57.615Z,95491.41
2018-07-26T07:36:26.163Z,95349.45
2018-07-26T07:38:54.689Z,95329.17
2018-07-26T07:41:23.319Z,95281.52
2018-07-26T07:43:51.887Z,95158.84
2018-07-26T07:46:20.431Z,95111.19
2018-07-26T07:48:48.968Z,95042.24
2018-07-26T07:51:17.465Z,95151.74
2018-07-26T07:53:45.965Z,95096.99
2018-07-26T07:56:14.522Z,95082.80
2018-07-26T07:58:42.984Z,95055.42
2018-07-26T08:01:14.601Z,95089.89
2018-07-26T08:03:43.157Z,94850.63
2018-07-26T08:06:11.721Z,94853.67
2018-07-26T08:08:40.281Z,94955.05
2018-07-26T08:11:08.802Z,94841.51
2018-07-26T08:13:38.251Z,94884.09
2018-07-26T08:16:06.800Z,94844.55
2018-07-26T08:18:35.453Z,94754.32
2018-07-26T08:21:04.007Z,94682.34
2018-07-26T08:23:32.536Z,94750.27
2018-07-26T08:26:01.117Z,94756.35
2018-07-26T08:28:29.684Z,94587.06
2018-07-26T08:30:58.651Z,94542.45
2018-07-26T08:33:27.149Z,94402.56
2018-07-26T08:35:56.022Z,94445.14
2018-07-26T08:38:24.954Z,94301.20
2018-07-26T08:40:53.486Z,94359.99
2018-07-26T08:43:22.025Z,94334.66
2018-07-26T08:45:50.646Z,94314.37
2018-07-26T08:48:19.488Z,94386.34
2018-07-26T08:50:48.322Z,94403.58
2018-07-26T08:53:17.191Z,94357.97
2018-07-26T08:55:45.768Z,94313.37
2018-07-26T08:58:14.321Z,94337.70
2018-07-26T09:00:42.890Z,94168.42
2018-07-26T09:03:11.503Z,94168.42
2018-07-26T09:05:40.011Z,94105.58
2018-07-26T09:08:08.565Z,94168.42
2018-07-26T09:10:37.092Z,94006.25
2018-07-26T09:13:05.804Z,93946.45
2018-07-26T09:15:34.313Z,94052.88
2018-07-26T09:18:02.959Z,93939.36
2018-07-26T09:20:31.533Z,93766.05
2018-07-26T09:23:00.050Z,93898.81
2018-07-26T09:25:28.498Z,93905.91
2018-07-26T09:27:57.058Z,93793.41
2018-07-26T09:30:25.563Z,93679.91
2018-07-26T09:32:54.111Z,93747.81
2018-07-26T09:35:23.094Z,93608.97
2018-07-26T09:37:51.599Z,93595.79
2018-07-26T09:40:20.095Z,93637.34
2018-07-26T09:42:48.947Z,93670.78
2018-07-26T09:45:17.521Z,93584.64
2018-07-26T09:47:46.027Z,93482.29
2018-07-26T09:50:14.547Z,93437.70
2018-07-26T09:52:43.040Z,93349.54
2018-07-26T09:55:11.646Z,93318.13
2018-07-26T09:57:40.146Z,93320.16
2018-07-26T10:00:08.825Z,93307.99
2018-07-26T10:02:37.415Z,93266.45
2018-07-26T10:05:06.747Z,93268.47
2018-07-26T10:07:35.262Z,93062.77
2018-07-26T10:10:03.920Z,93149.91
2018-07-26T10:12:32.434Z,93027.31
2018-07-26T10:15:00.928Z,92986.78
2018-07-26T10:17:29.450Z,92901.67
2018-07-26T10:19:57.996Z,92844.92
2018-07-26T10:22:26.882Z,92921.93
2018-07-26T10:24:55.346Z,92826.69
2018-07-26T10:27:23.819Z,92821.63
2018-07-26T10:29:52.391Z,92777.05
2018-07-26T10:32:21.137Z,92828.72
2018-07-26T10:34:50.682Z,92807.44
2018-07-26T10:37:19.196Z,92701.06
2018-07-26T10:39:47.749Z,92607.84
2018-07-26T10:42:47.414Z,92519.70
2018-07-26T10:45:15.991Z,92550.09
2018-07-26T10:47:44.494Z,92569.34
2018-07-26T10:50:13.056Z,92508.56
2018-07-26T10:52:42.561Z,92396.11
2018-07-26T10:55:11.068Z,92156.02
2018-07-26T10:57:39.870Z,92246.17
2018-07-26T11:00:09.435Z,92174.25
2018-07-26T11:02:39.007Z,92217.81
2018-07-26T11:05:09.161Z,92064.84
2018-07-26T11:07:38.126Z,92297.84
2018-07-26T11:10:08.649Z,92090.17
2018-07-26T11:12:37.274Z,92178.30
2018-07-26T11:15:23.516Z,91974.70
2018-07-26T11:17:52.073Z,92150.95
2018-07-26T11:20:20.592Z,92033.45
2018-07-26T11:22:49.090Z,91851.12
2018-07-26T11:25:17.640Z,92055.73
2018-07-26T11:27:46.346Z,92104.36
2018-07-26T11:30:14.894Z,92196.54
2018-07-26T11:32:43.402Z,91986.85
2018-07-26T11:35:12.469Z,91821.75
2018-07-26T11:37:41.358Z,91927.09
2018-07-26T11:40:09.922Z,91951.40
2018-07-26T11:42:38.411Z,91976.72
2018-07-26T11:45:08.334Z,91736.66
2018-07-26T11:47:37.254Z,91437.88
2018-07-26T11:50:06.425Z,91314.32
2018-07-26T11:52:34.966Z,91483.45
2018-07-26T11:55:03.722Z,91683.99
2018-07-26T11:57:32.261Z,91825.80
2018-07-26T12:00:01.061Z,91535.11
2018-07-26T12:02:29.644Z,91731.59
2018-07-26T12:04:58.141Z,91894.67
2018-07-26T12:07:26.665Z,91755.91
2018-07-26T12:09:55.166Z,91793.38
2018-07-26T12:12:23.723Z,91599.92
2018-07-26T12:14:52.242Z,91764.02
2018-07-26T12:17:20.790Z,91964.56
2018-07-26T12:19:49.289Z,91896.70
2018-07-26T12:22:17.826Z,91761.98
2018-07-26T12:24:46.966Z,91575.62
2018-07-26T12:27:15.483Z,91584.73
2018-07-26T12:29:43.970Z,91372.05
2018-07-26T12:32:12.666Z,91795.41
2018-07-26T12:34:41.177Z,91513.84
2018-07-26T12:37:09.685Z,91292.03
2018-07-26T12:39:38.216Z,91436.86
2018-07-26T12:42:06.726Z,91618.16
2018-07-26T12:44:35.294Z,91874.42
2018-07-26T12:47:03.898Z,92019.27
2018-07-26T12:49:32.442Z,92159.06
2018-07-26T12:52:00.933Z,92116.52
2018-07-26T12:54:29.446Z,91802.50
2018-07-26T12:59:36.826Z,91537.13
2018-07-26T13:02:05.356Z,91550.30
2018-07-26T13:04:33.886Z,91113.80
2018-07-26T13:07:02.545Z,91424.71
2018-07-26T13:09:31.020Z,91117.85
2018-07-26T13:11:59.601Z,90964.94
2018-07-26T13:14:28.106Z,90991.27
2018-07-26T13:16:56.581Z,91115.83
2018-07-26T13:19:25.173Z,91246.47
2018-07-26T13:21:53.726Z,91360.91
2018-07-26T13:24:22.263Z,91098.61
2018-07-26T13:26:50.782Z,91247.48
2018-07-26T13:29:19.294Z,90973.04
2018-07-26T13:31:47.827Z,91156.33
2018-07-26T13:34:16.372Z,91287.98
2018-07-26T13:36:44.854Z,91377.11
2018-07-26T13:39:14.582Z,91103.67
2018-07-26T13:41:43.513Z,90939.63
2018-07-26T13:44:12.030Z,90950.76
2018-07-26T13:46:40.517Z,91562.45
2018-07-26T13:49:09.003Z,91588.78
2018-07-26T13:51:37.517Z,91205.95
2018-07-26T13:54:06.643Z,91444.97
2018-07-26T13:56:35.211Z,91374.07
2018-07-26T13:59:03.761Z,91064.17
2018-07-26T14:01:32.457Z,90903.17
2018-07-26T14:04:01.075Z,90707.73
2018-07-26T14:06:29.638Z,90939.63
2018-07-26T14:08:58.152Z,90746.21
2018-07-26T14:11:26.685Z,90681.41
2018-07-26T14:13:55.182Z,91148.23
2018-07-26T14:16:24.269Z,91346.73
2018-07-26T14:18:52.769Z,91147.22
2018-07-26T14:21:21.242Z,91013.55
2018-07-26T14:23:53.888Z,91133.04
2018-07-26T14:26:22.470Z,91221.14
2018-07-26T14:28:50.983Z,91480.41
2018-07-26T14:31:19.546Z,91286.97
2018-07-26T14:33:48.146Z,91206.97
2018-07-26T14:36:17.190Z,91114.81
2018-07-26T14:38:45.762Z,91198.87
2018-07-26T14:41:14.381Z,91033.80
2018-07-26T14:43:42.995Z,91359.89
2018-07-26T14:46:11.870Z,90994.30
2018-07-26T14:48:40.400Z,90900.13
2018-07-26T14:51:08.893Z,91160.38
2018-07-26T14:53:37.476Z,91177.59
2018-07-26T14:56:06.081Z,91479.41
2018-07-26T14:58:34.633Z,91357.87
2018-07-26T15:01:03.175Z,91324.45
2018-07-26T15:03:32.458Z,91693.11
2018-07-26T15:06:01.067Z,91421.67
2018-07-26T15:08:29.534Z,91147.22
2018-07-26T15:10:58.068Z,91247.48
2018-07-26T15:13:26.755Z,91048.98
2018-07-26T15:15:55.295Z,91030.77
2018-07-26T15:18:23.826Z,90997.34
2018-07-26T15:20:52.342Z,91024.69
2018-07-26T15:23:20.858Z,90987.22
2018-07-26T15:25:49.391Z,90722.92
2018-07-26T15:28:17.887Z,91004.43
2018-07-26T15:30:46.414Z,90868.73
2018-07-26T15:33:14.858Z,90935.57
2018-07-26T15:35:43.488Z,91037.84
2018-07-26T15:38:12.018Z,90955.82
2018-07-26T15:40:40.559Z,91194.81
2018-07-26T15:43:09.054Z,90810.00
2018-07-26T15:45:37.625Z,91038.86
2018-07-26T15:48:06.870Z,91063.16
2018-07-26T15:50:35.866Z,91068.23
2018-07-26T15:53:04.393Z,91442.94
2018-07-26T15:55:32.904Z,91787.31
2018-07-26T15:58:01.478Z,91787.31
2018-07-26T16:00:30.019Z,91779.20
2018-07-26T16:02:58.675Z,91744.77
2018-07-26T16:05:27.197Z,91800.48
2018-07-26T16:07:55.650Z,91457.13
2018-07-26T16:10:24.203Z,91506.75
2018-07-26T16:12:52.778Z,91395.34
2018-07-26T16:15:21.275Z,91159.37
2018-07-26T16:17:49.916Z,91101.65
2018-07-26T16:20:18.357Z,91317.36
2018-07-26T16:22:46.888Z,91339.64
2018-07-26T16:25:15.441Z,91307.23
2018-07-26T16:27:43.969Z,91068.23
2018-07-26T16:30:13.401Z,91409.52
2018-07-26T16:32:41.938Z,91294.06
2018-07-26T16:35:10.562Z,91280.90
2018-07-26T16:37:39.173Z,91291.02
2018-07-26T16:40:07.813Z,91158.36
2018-07-26T16:42:36.210Z,91359.89
2018-07-26T16:45:05.139Z,91154.31
2018-07-26T16:47:33.643Z,91236.34
2018-07-26T16:50:02.333Z,91198.87
2018-07-26T16:52:30.918Z,91212.03
2018-07-26T16:54:59.551Z,91286.97
2018-07-26T16:57:28.013Z,91323.44
2018-07-26T16:59:56.559Z,91378.13
2018-07-26T17:02:25.071Z,91494.59
2018-07-26T17:04:53.662Z,91600.94
2018-07-26T17:07:23.981Z,91589.80
2018-07-26T17:09:52.564Z,91619.17
2018-07-26T17:12:21.236Z,91575.62
2018-07-26T17:14:49.759Z,91611.06
2018-07-26T17:17:18.323Z,91559.41
2018-07-26T17:19:46.828Z,91433.83
2018-07-26T17:22:15.666Z,91409.52
2018-07-26T17:24:44.241Z,91571.56
2018-07-26T17:27:12.734Z,91580.69
2018-07-26T17:29:41.242Z,91612.08
2018-07-26T17:32:09.829Z,91732.61
2018-07-26T17:34:38.345Z,91719.45
2018-07-26T17:37:06.893Z,91837.95
2018-07-26T17:39:35.404Z,91834.91
2018-07-26T17:42:03.957Z,91809.59
2018-07-26T17:44:32.815Z,91817.70
2018-07-26T17:47:01.379Z,91671.84
2018-07-26T17:49:29.857Z,91907.84
2018-07-26T17:51:58.463Z,92056.75
2018-07-26T17:54:26.933Z,92166.16
2018-07-26T17:56:55.623Z,92035.47
2018-07-26T17:59:24.178Z,92206.67
2018-07-26T18:01:52.686Z,92297.84
2018-07-26T18:04:21.594Z,92402.19
2018-07-26T18:06:50.108Z,92403.20
2018-07-26T18:09:18.599Z,92402.19
2018-07-26T18:11:47.131Z,92410.30
2018-07-26T18:14:15.600Z,92383.95
2018-07-26T18:16:44.102Z,92205.66
2018-07-26T18:19:12.630Z,92137.78
2018-07-26T18:21:41.390Z,92288.72
2018-07-26T18:24:09.910Z,92509.58
2018-07-26T18:26:38.734Z,92689.91
2018-07-26T18:29:07.277Z,92753.73
2018-07-26T18:31:37.718Z,92875.33
2018-07-26T18:34:06.178Z,92855.06
2018-07-26T18:36:34.766Z,92798.32
2018-07-26T18:39:03.526Z,92848.98
2018-07-26T18:41:32.018Z,92966.52
2018-07-26T18:44:00.723Z,93036.42
2018-07-26T18:46:30.133Z,93106.34
2018-07-26T18:48:59.332Z,92978.67
2018-07-26T18:51:28.185Z,93097.22
2018-07-26T18:53:57.039Z,93066.83
2018-07-26T18:56:26.082Z,93132.69
2018-07-26T18:58:54.898Z,93113.44
2018-07-26T19:01:23.566Z,93296.84
2018-07-26T19:03:52.055Z,93361.70
2018-07-26T19:06:20.549Z,93391.09
2018-07-26T19:08:49.421Z,93410.34
2018-07-26T19:11:17.962Z,93532.96
2018-07-26T19:13:46.518Z,93580.59
2018-07-26T19:16:15.413Z,93492.42
2018-07-26T19:18:43.974Z,93557.28
2018-07-26T19:21:12.490Z,93563.36
2018-07-26T19:23:41.083Z,93544.11
2018-07-26T19:26:09.634Z,93653.55
2018-07-26T19:28:38.178Z,93768.08
2018-07-26T19:31:06.739Z,93816.72
2018-07-26T19:33:35.212Z,93714.36
2018-07-26T19:36:03.795Z,93783.28
2018-07-26T19:38:32.299Z,93891.72
2018-07-26T19:41:00.821Z,93821.79
2018-07-26T19:43:29.457Z,93877.53
2018-07-26T19:45:57.946Z,93937.33
2018-07-26T19:48:26.890Z,93888.68
2018-07-26T19:50:55.602Z,94035.64
2018-07-26T19:53:24.445Z,94108.63
2018-07-26T19:55:52.994Z,94125.85
2018-07-26T19:58:21.618Z,94122.81
2018-07-26T20:00:50.300Z,94183.63
2018-07-26T20:03:18.790Z,94215.05
2018-07-26T20:05:47.299Z,94233.29
2018-07-26T20:08:15.814Z,94272.82
2018-07-26T20:10:45.544Z,94194.77
2018-07-26T20:13:14.169Z,94291.06
2018-07-26T20:15:42.770Z,94310.33
2018-07-26T20:18:11.370Z,94322.48
2018-07-26T20:20:39.949Z,94289.04
2018-07-26T20:23:08.569Z,94229.23
2018-07-26T20:25:41.897Z,94255.59
2018-07-26T20:28:10.994Z,94234.30
2018-07-26T20:30:39.542Z,94261.67
2018-07-26T20:33:08.119Z,94346.81
2018-07-26T20:35:36.637Z,94370.13
2018-07-26T20:38:36.249Z,94401.55
2018-07-26T20:41:04.843Z,94376.22
2018-07-26T20:43:33.441Z,94468.45
2018-07-26T20:46:02.060Z,94473.52
2018-07-26T20:48:30.688Z,94460.34
2018-07-26T20:50:59.186Z,94447.17
2018-07-26T20:53:27.738Z,94437.03
2018-07-26T20:55:56.275Z,94423.86
2018-07-26T20:59:27.671Z,94458.31
2018-07-26T21:01:56.234Z,94431.97
2018-07-26T21:04:24.942Z,94520.16
2018-07-26T21:06:53.438Z,94549.55
2018-07-26T21:09:21.937Z,94498.86
2018-07-26T21:11:50.474Z,94538.40
2018-07-26T21:14:18.971Z,94618.48
2018-07-26T21:16:47.489Z,94642.81
2018-07-26T21:19:16.039Z,94657.00
2018-07-26T21:21:44.622Z,94752.30
2018-07-26T21:24:13.240Z,94813.13
2018-07-26T21:26:41.759Z,94771.56
2018-07-26T21:29:10.239Z,94821.23
2018-07-26T21:31:38.780Z,94864.83
2018-07-26T21:34:07.285Z,94885.10
2018-07-26T21:36:35.803Z,94881.05
2018-07-26T21:39:06.874Z,94867.87
2018-07-26T21:41:35.487Z,94897.27
2018-07-26T21:44:04.181Z,94903.34
2018-07-26T21:46:32.698Z,94938.83
2018-07-26T21:49:01.226Z,94994.59
2018-07-26T21:51:29.776Z,94946.94
2018-07-26T21:53:58.269Z,94902.34
2018-07-26T21:56:26.770Z,94862.80
2018-07-26T21:58:55.273Z,94960.12
2018-07-26T22:01:23.807Z,94985.47
2018-07-26T22:03:52.290Z,94995.61
2018-07-26T22:06:21.238Z,94998.65
2018-07-26T22:08:49.762Z,95007.77
2018-07-26T22:11:18.251Z,95037.17
2018-07-26T22:13:47.145Z,95025.01
2018-07-26T22:16:15.731Z,94999.66
2018-07-26T22:18:44.175Z,95007.77
2018-07-26T22:21:12.722Z,95018.92
2018-07-26T22:23:41.278Z,95018.92
2018-07-26T22:26:09.840Z,94990.53
2018-07-26T22:28:38.451Z,94977.36
2018-07-26T22:31:07.100Z,94960.12
2018-07-26T22:33:35.612Z,95020.95
2018-07-26T22:36:04.149Z,95035.14
2018-07-26T22:38:34.849Z,95056.44
2018-07-26T22:41:03.381Z,95066.58
2018-07-26T22:43:31.905Z,95102.06
2018-07-26T22:46:00.421Z,95110.17
2018-07-26T22:48:28.910Z,95118.28
2018-07-26T22:50:57.724Z,95145.66
2018-07-26T22:53:26.266Z,95169.98
2018-07-26T22:55:54.805Z,95192.30
2018-07-26T22:58:23.370Z,95128.42
2018-07-26T23:00:52.333Z,95219.67
2018-07-26T23:03:20.845Z,95250.09
2018-07-26T23:05:49.373Z,95278.48
2018-07-26T23:08:18.280Z,95260.22
2018-07-26T23:10:46.802Z,95262.25
2018-07-26T23:13:15.297Z,95270.36
2018-07-26T23:15:43.795Z,95291.66
2018-07-26T23:18:12.310Z,95251.10
2018-07-26T23:20:40.918Z,95271.38
2018-07-26T23:23:09.400Z,95296.73
2018-07-26T23:25:37.934Z,95287.60
2018-07-26T23:28:06.592Z,95317.00
2018-07-26T23:30:35.076Z,95355.53
2018-07-26T23:33:03.583Z,95378.86
2018-07-26T23:35:32.079Z,95371.76
2018-07-26T23:38:00.570Z,95308.89
2018-07-26T23:40:29.058Z,95378.86
2018-07-26T23:42:57.644Z,95355.53
2018-07-26T23:45:26.166Z,95310.92
2018-07-26T23:47:54.668Z,95387.98
2018-07-26T23:50:23.222Z,95409.27
2018-07-26T23:52:58.123Z,95444.77
2018-07-26T23:55:26.769Z,95436.66
2018-07-26T23:57:55.265Z,95426.52
